Impacts METAR Board
IDs:

KMDW - Chicago/Midway Intl, IL, US

Updated at: 0100 UTC 19 Dec 2018
Potential Impact None Slight Moderate High
Time 18/13Z 18/14Z 18/15Z 18/16Z 18/17Z 18/18Z 18/19Z 18/20Z 18/21Z 18/22Z 18/23Z 19/00Z 19/01Z
Temp22 26 27 30 38 40 41 42 42 41 40 39 38
Dewpt22 25 27 28 29 28 27 28 29 28 30 30 30
Altim30.24 30.24 30.25 30.25 30.22 30.18 30.15 30.12 30.12 30.11 30.11 30.09 30.07
VIS10 10 10 10 10 10 10 10 10 10 10 10 10
CIG-- -- 250 250 250 -- -- -- -- -- -- -- --
CoverFEWFEWBKNBKNBKNSCTFEWFEWFEWFEWFEWFEWFEW
FltCatVFRVFRVFRVFRVFRVFRVFRVFRVFRVFRVFRVFRVFR
WX--------------------------
WDir140160170170190190210200200190200180170
WSpd5 5 7 7 8 10 9 8 10 8 7 6 10
WGst-- -- -- -- -- -- 17 -- -- -- -- -- 21
Raw hourly METARs
KMDW 181253Z 14005KT 10SM FEW150 FEW250 M05/M05 A3024 RMK AO2 SLP256 T10561056
KMDW 181353Z 16005KT 10SM FEW150 FEW250 M03/M04 A3024 RMK AO2 SLP254 T10331039
KMDW 181453Z 17007KT 10SM FEW150 BKN250 M03/M03 A3025 RMK AO2 SLP257 T10281028 53004
KMDW 181553Z 17007KT 10SM FEW150 BKN250 M01/M02 A3025 RMK AO2 SLP257 T10111022
KMDW 181653Z 19008KT 10SM FEW150 BKN250 04/M02 A3022 RMK AO2 SLP245 T00331017
KMDW 181753Z 19010KT 10SM FEW150 SCT250 04/M02 A3018 RMK AO2 SLP230 T00441022 10100 21056 58023 $
KMDW 181853Z 21009G17KT 10SM FEW150 FEW250 05/M03 A3015 RMK AO2 SLP219 T00501028
KMDW 181953Z 20008KT 10SM FEW150 FEW250 06/M02 A3012 RMK AO2 SLP208 T00561022
KMDW 182053Z 20010KT 10SM FEW150 FEW250 06/M02 A3012 RMK AO2 PK WND 18027/2037 SLP210 T00561017 55020
KMDW 182153Z 19008KT 10SM FEW250 05/M02 A3011 RMK AO2 SLP207 T00501022
KMDW 182253Z 20007KT 10SM FEW250 04/M01 A3011 RMK AO2 SLP206 T00441011
KMDW 182353Z 18006KT 10SM FEW250 04/M01 A3009 RMK AO2 SLP201 T00391011 10061 20039 58009
KMDW 190053Z 17010G21KT 10SM FEW250 03/M01 A3007 RMK AO2 SLP194 T00331011



Page loaded:  01:10 UTC  |   05:10 PM Pacific  |   06:10 PM Mountain  |   07:10 PM Central  |   08:10 PM Eastern

 

ADVISORIES

FORECASTS

FORECASTS

OBSERVATIONS

USER TOOLS

ABOUT US